Time;durP1;ratioP1;P1;durP2;ratioP2;P2;SDS_P1;SDS_P2;PMS_P1;PMS_P2;Temp;Humidity;BMP_temperature;BMP_pressure;BME280_temperature;BME280_humidity;BME280_pressure;Samples;Min_cycle;Max_cycle;Signal;HPM_P1;HPM_P2
2022/07/05 00:01:18;;;;;;;8.75;7.83;;;;;;;16.81;100.00;100776.15;1723866;82;20933;-43
2022/07/05 00:03:45;;;;;;;8.18;7.37;;;;;;;16.83;100.00;100774.32;1726705;82;21149;-44
2022/07/05 00:06:12;;;;;;;11.28;7.20;;;;;;;16.85;100.00;100772.50;1725696;82;21011;-43
2022/07/05 00:08:40;;;;;;;9.98;7.28;;;;;;;16.84;100.00;100772.10;1727927;82;20948;-43
2022/07/05 00:11:07;;;;;;;15.18;7.33;;;;;;;16.82;100.00;100772.63;1736924;82;20886;-43
2022/07/05 00:13:34;;;;;;;9.38;7.22;;;;;;;16.85;100.00;100770.32;1734440;82;20925;-43
2022/07/05 00:16:03;;;;;;;7.60;6.90;;;;;;;16.88;100.00;100769.75;1734048;82;20885;-44
2022/07/05 00:18:29;;;;;;;7.78;6.97;;;;;;;16.89;100.00;100774.06;1718282;81;20967;-43
2022/07/05 00:20:56;;;;;;;7.87;7.08;;;;;;;16.91;100.00;100769.63;1727459;82;21027;-43
2022/07/05 00:23:22;;;;;;;8.70;7.22;;;;;;;16.91;100.00;100769.63;1721327;82;21036;-43
2022/07/05 00:25:49;;;;;;;9.78;7.30;;;;;;;16.89;100.00;100769.28;1730973;82;20932;-43
2022/07/05 00:28:17;;;;;;;9.28;7.45;;;;;;;16.85;100.00;100769.88;1728625;82;20917;-44
2022/07/05 00:30:44;;;;;;;8.73;7.10;;;;;;;16.84;100.00;100769.92;1715505;81;20971;-44
2022/07/05 00:33:10;;;;;;;7.17;6.60;;;;;;;16.83;100.00;100766.48;1731018;82;21040;-43
2022/07/05 00:35:37;;;;;;;11.48;7.33;;;;;;;16.81;100.00;100773.53;1720888;82;21578;-43
2022/07/05 00:38:04;;;;;;;9.93;6.90;;;;;;;16.76;100.00;100771.09;1740118;82;20999;-43
2022/07/05 00:40:33;;;;;;;10.20;7.08;;;;;;;16.74;100.00;100769.00;1725606;82;20973;-43
2022/07/05 00:42:59;;;;;;;7.97;7.05;;;;;;;16.74;100.00;100771.61;1708092;82;21530;-43
2022/07/05 00:45:26;;;;;;;8.03;6.95;;;;;;;16.73;100.00;100771.66;1721443;82;21040;-43
2022/07/05 00:47:53;;;;;;;11.60;7.92;;;;;;;16.74;100.00;100768.13;1721934;82;20988;-44
2022/07/05 00:50:20;;;;;;;8.80;6.37;;;;;;;16.74;100.00;100769.44;1712766;82;20952;-43
2022/07/05 00:52:48;;;;;;;10.30;6.87;;;;;;;16.71;100.00;100769.13;1725660;82;20981;-43
2022/07/05 00:55:16;;;;;;;12.07;6.45;;;;;;;16.68;100.00;100770.55;1716345;82;20937;-43
2022/07/05 00:57:42;;;;;;;8.33;6.78;;;;;;;16.64;100.00;100772.86;1712240;82;21529;-43
2022/07/05 01:00:10;;;;;;;6.37;5.75;;;;;;;16.61;100.00;100772.98;1722813;82;20973;-43
2022/07/05 01:02:37;;;;;;;8.75;5.85;;;;;;;16.60;100.00;100769.98;1722452;82;22241;-43
2022/07/05 01:05:05;;;;;;;6.37;5.87;;;;;;;16.55;100.00;100772.79;1720328;82;21154;-43
2022/07/05 01:07:33;;;;;;;6.05;5.55;;;;;;;16.51;100.00;100773.79;1719429;81;21558;-44
2022/07/05 01:09:59;;;;;;;8.53;5.60;;;;;;;16.47;100.00;100767.85;1713932;82;21000;-43
2022/07/05 01:12:27;;;;;;;9.13;5.35;;;;;;;16.42;100.00;100776.33;1723062;82;20941;-43
2022/07/05 01:14:54;;;;;;;6.60;5.92;;;;;;;16.38;100.00;100772.96;1716581;82;20897;-43
2022/07/05 01:17:22;;;;;;;5.95;5.40;;;;;;;16.33;100.00;100772.73;1723675;82;21161;-43
2022/07/05 01:19:49;;;;;;;13.08;5.10;;;;;;;16.25;100.00;100769.09;1721275;82;20933;-43
2022/07/05 01:22:18;;;;;;;10.40;5.58;;;;;;;16.20;100.00;100769.73;1719926;82;21000;-43
2022/07/05 01:24:48;;;;;;;12.43;5.78;;;;;;;16.16;100.00;100770.75;1710200;82;21554;-43
2022/07/05 01:27:15;;;;;;;7.47;6.55;;;;;;;16.13;100.00;100777.40;1722017;82;20988;-43
2022/07/05 01:29:43;;;;;;;11.40;5.80;;;;;;;16.09;100.00;100770.98;1709167;82;21251;-43
2022/07/05 01:32:09;;;;;;;6.28;5.78;;;;;;;16.13;100.00;100770.88;1712044;82;20937;-43
2022/07/05 01:34:40;;;;;;;9.18;6.70;;;;;;;16.13;100.00;100769.56;1720735;82;20997;-43
2022/07/05 01:37:08;;;;;;;7.08;6.00;;;;;;;16.18;100.00;100769.80;1718971;82;20948;-43
2022/07/05 01:39:35;;;;;;;15.15;7.72;;;;;;;16.25;100.00;100772.17;1715886;81;21897;-43
2022/07/05 01:42:03;;;;;;;14.95;7.47;;;;;;;16.27;100.00;100771.66;1726806;82;22202;-43
2022/07/05 01:44:31;;;;;;;11.45;7.28;;;;;;;16.31;100.00;100776.72;1733999;82;20971;-43
2022/07/05 01:47:02;;;;;;;10.48;7.28;;;;;;;16.32;100.00;100775.81;1730033;82;21570;-43
2022/07/05 01:49:28;;;;;;;8.80;6.12;;;;;;;16.32;100.00;100778.42;1736809;82;20988;-43
2022/07/05 01:51:58;;;;;;;6.92;5.80;;;;;;;16.31;100.00;100780.64;1732628;82;21545;-43
2022/07/05 01:54:25;;;;;;;10.98;5.72;;;;;;;16.27;100.00;100779.03;1723507;82;21136;-43
2022/07/05 01:56:51;;;;;;;10.50;5.65;;;;;;;16.20;100.00;100781.48;1733747;82;20933;-43
2022/07/05 01:59:18;;;;;;;9.90;5.65;;;;;;;16.15;100.00;100778.19;1735999;81;20909;-43
2022/07/05 02:01:45;;;;;;;6.22;5.50;;;;;;;16.06;100.00;100788.08;1706319;83;21040;-43
2022/07/05 02:04:12;;;;;;;5.37;4.95;;;;;;;16.01;100.00;100785.22;1728037;82;21009;-43
2022/07/05 02:06:41;;;;;;;4.78;4.33;;;;;;;15.96;100.00;100784.07;1733616;82;21000;-43
2022/07/05 02:09:09;;;;;;;8.13;4.65;;;;;;;15.94;100.00;100781.97;1727283;82;21071;-43
2022/07/05 02:11:36;;;;;;;11.53;5.40;;;;;;;15.92;100.00;100782.48;1725687;82;21043;-43
2022/07/05 02:14:04;;;;;;;5.00;4.50;;;;;;;15.91;100.00;100789.91;1735577;82;20904;-43
2022/07/05 02:16:34;;;;;;;4.92;4.62;;;;;;;15.91;100.00;100788.61;1732621;82;21530;-43
2022/07/05 02:19:01;;;;;;;7.08;4.33;;;;;;;15.91;100.00;100796.44;1738550;81;21176;-43
2022/07/05 02:21:30;;;;;;;5.25;4.60;;;;;;;15.92;100.00;100797.70;1732322;82;21003;-43
2022/07/05 02:23:56;;;;;;;8.15;4.85;;;;;;;15.94;100.00;100795.02;1720127;82;20943;-43
2022/07/05 02:26:25;;;;;;;4.37;4.08;;;;;;;15.96;100.00;100799.73;1735296;81;20924;-43
2022/07/05 02:28:53;;;;;;;4.47;4.17;;;;;;;15.98;100.00;100803.14;1735859;82;20987;-43
2022/07/05 02:31:20;;;;;;;7.62;4.25;;;;;;;16.00;100.00;100806.55;1721520;82;20986;-43
2022/07/05 02:33:48;;;;;;;5.25;4.37;;;;;;;16.04;100.00;100800.77;1733613;82;21711;-43
2022/07/05 02:36:15;;;;;;;4.65;4.30;;;;;;;16.07;100.00;100811.97;1731091;81;21000;-43
2022/07/05 02:38:42;;;;;;;4.97;4.50;;;;;;;16.10;100.00;100804.46;1723207;82;20940;-43
2022/07/05 02:41:10;;;;;;;4.45;4.08;;;;;;;16.17;100.00;100803.80;1732336;81;21490;-43
2022/07/05 02:43:38;;;;;;;4.72;4.20;;;;;;;16.21;100.00;100807.98;1697170;82;21261;-43
2022/07/05 02:46:06;;;;;;;4.92;4.20;;;;;;;16.26;100.00;100809.97;1730313;82;20950;-43
2022/07/05 02:48:34;;;;;;;6.95;4.55;;;;;;;16.29;100.00;100813.77;1736587;82;20972;-43
2022/07/05 02:51:01;;;;;;;6.03;4.78;;;;;;;16.33;100.00;100812.78;1727108;82;21030;-43
2022/07/05 02:53:29;;;;;;;11.63;4.85;;;;;;;16.38;100.00;100817.81;1733710;82;21694;-43
2022/07/05 02:55:57;;;;;;;12.00;4.95;;;;;;;16.42;100.00;100816.81;1732181;82;21856;-43
2022/07/05 02:58:24;;;;;;;7.37;5.35;;;;;;;16.47;100.00;100821.41;1738277;82;20928;-43
2022/07/05 03:00:51;;;;;;;10.03;5.00;;;;;;;16.53;100.00;100819.00;1736034;82;21014;-43
2022/07/05 03:03:18;;;;;;;6.67;5.40;;;;;;;16.59;100.00;100816.17;1721412;82;22150;-43
2022/07/05 03:05:45;;;;;;;9.55;5.40;;;;;;;16.68;100.00;100807.14;1737827;82;20968;-43
2022/07/05 03:08:12;;;;;;;13.68;5.28;;;;;;;16.77;100.00;100808.52;1724965;82;21150;-43
2022/07/05 03:10:40;;;;;;;7.12;5.78;;;;;;;16.90;100.00;100808.45;1734889;82;20976;-43
2022/07/05 03:13:07;;;;;;;6.67;5.42;;;;;;;17.04;100.00;100810.98;1732356;82;20948;-43
2022/07/05 03:15:34;;;;;;;9.78;5.83;;;;;;;17.14;100.00;100813.65;1733445;82;21002;-43
2022/07/05 03:18:02;;;;;;;5.80;5.25;;;;;;;17.26;100.00;100813.61;1731966;82;21128;-43
2022/07/05 03:20:30;;;;;;;7.53;6.15;;;;;;;17.36;100.00;100808.85;1725379;82;21038;-43
2022/07/05 03:22:58;;;;;;;6.35;5.75;;;;;;;17.47;100.00;100806.63;1736703;82;20952;-43
2022/07/05 03:25:28;;;;;;;7.90;6.65;;;;;;;17.58;100.00;100810.10;1739761;81;21518;-41
2022/07/05 03:27:55;;;;;;;6.67;6.10;;;;;;;17.69;100.00;100810.95;1729083;82;20984;-40
2022/07/05 03:30:22;;;;;;;9.70;6.42;;;;;;;17.79;100.00;100807.02;1730421;82;21000;-43
2022/07/05 03:32:50;;;;;;;6.17;5.53;;;;;;;17.91;100.00;100804.33;1728230;82;21049;-44
2022/07/05 03:35:17;;;;;;;8.23;5.30;;;;;;;18.03;100.00;100802.97;1728431;82;20999;-43
2022/07/05 03:37:46;;;;;;;8.48;5.53;;;;;;;18.14;100.00;100812.97;1726798;81;20959;-43
2022/07/05 03:40:13;;;;;;;5.80;4.87;;;;;;;18.24;100.00;100810.34;1733921;80;21028;-43
2022/07/05 03:42:40;;;;;;;6.17;4.78;;;;;;;18.38;100.00;100807.09;1706268;82;20983;-43
2022/07/05 03:45:10;;;;;;;9.98;4.55;;;;;;;18.57;100.00;100807.56;1723718;82;21198;-43
2022/07/05 03:47:37;;;;;;;10.10;4.00;;;;;;;18.82;100.00;100807.72;1702441;82;21474;-44
2022/07/05 03:50:07;;;;;;;6.80;3.85;;;;;;;19.14;100.00;100804.48;1722375;82;20948;-45
2022/07/05 03:52:34;;;;;;;6.40;4.70;;;;;;;19.44;100.00;100809.99;1727987;82;21490;-44
2022/07/05 03:55:00;;;;;;;6.58;4.42;;;;;;;19.70;100.00;100809.58;1715459;82;20984;-44
2022/07/05 03:57:27;;;;;;;5.85;3.85;;;;;;;20.04;100.00;100807.88;1721765;82;21246;-44
2022/07/05 03:59:54;;;;;;;4.17;3.80;;;;;;;20.44;100.00;100803.58;1718188;82;21031;-44
2022/07/05 04:02:22;;;;;;;14.80;3.50;;;;;;;20.85;100.00;100806.19;1721782;82;21546;-44
2022/07/05 04:04:49;;;;;;;4.80;3.55;;;;;;;21.22;100.00;100813.31;1723082;82;20929;-44
2022/07/05 04:07:17;;;;;;;12.47;3.50;;;;;;;21.56;100.00;100807.38;1719270;82;20976;-44
2022/07/05 04:09:46;;;;;;;8.68;3.40;;;;;;;21.93;100.00;100810.94;1719447;82;21158;-44
2022/07/05 04:12:12;;;;;;;4.67;3.33;;;;;;;22.35;100.00;100808.38;1715835;82;21070;-44
2022/07/05 04:14:41;;;;;;;6.60;4.40;;;;;;;22.73;100.00;100809.55;1716560;82;20976;-44
2022/07/05 04:17:08;;;;;;;100.55;67.85;;;;;;;23.09;100.00;100811.59;1726245;82;21024;-44
2022/07/05 04:19:35;;;;;;;21.07;14.10;;;;;;;23.44;100.00;100812.86;1720060;82;20985;-44
2022/07/05 04:22:03;;;;;;;19.25;8.95;;;;;;;23.78;100.00;100810.55;1708027;82;21150;-44
2022/07/05 04:24:31;;;;;;;13.50;7.33;;;;;;;24.10;97.56;100810.14;1713265;82;21023;-42
2022/07/05 04:26:58;;;;;;;5.85;4.42;;;;;;;24.35;93.38;100808.89;1719808;82;20910;-45
2022/07/05 04:29:26;;;;;;;7.25;3.92;;;;;;;24.60;91.53;100813.25;1721712;81;20992;-42
2022/07/05 04:31:53;;;;;;;7.78;4.08;;;;;;;24.86;89.28;100810.53;1722764;82;21541;-43
2022/07/05 04:34:19;;;;;;;3.87;3.58;;;;;;;25.17;87.19;100809.61;1719920;82;21080;-43
2022/07/05 04:36:48;;;;;;;9.95;5.15;;;;;;;25.37;83.52;100806.77;1722190;82;21008;-43
2022/07/05 04:39:15;;;;;;;5.62;4.30;;;;;;;25.60;82.47;100806.85;1725836;82;21573;-43
2022/07/05 04:41:43;;;;;;;4.62;3.80;;;;;;;25.83;80.76;100808.20;1725384;81;21015;-42
2022/07/05 04:44:10;;;;;;;7.30;3.90;;;;;;;26.06;79.35;100803.73;1735928;82;20928;-43
2022/07/05 04:46:37;;;;;;;6.28;4.20;;;;;;;26.28;76.81;100802.07;1731111;82;21063;-43
2022/07/05 04:49:05;;;;;;;7.03;4.15;;;;;;;26.44;76.61;100800.85;1735271;82;20925;-43
2022/07/05 04:51:32;;;;;;;4.40;3.75;;;;;;;26.49;74.72;100803.97;1733457;81;21032;-43
2022/07/05 04:53:59;;;;;;;5.35;3.40;;;;;;;26.58;73.99;100801.89;1723463;82;20956;-42
2022/07/05 04:56:25;;;;;;;5.35;3.58;;;;;;;26.76;74.62;100803.52;1737133;82;20936;-41
2022/07/05 04:58:52;;;;;;;3.65;3.35;;;;;;;26.99;73.26;100796.00;1733360;82;21748;-42
2022/07/05 05:01:19;;;;;;;6.72;3.77;;;;;;;27.18;71.08;100801.47;1736403;82;21014;-44
2022/07/05 05:03:46;;;;;;;7.97;3.55;;;;;;;27.32;70.68;100806.09;1735969;82;21003;-42
2022/07/05 05:06:14;;;;;;;12.28;4.30;;;;;;;27.47;68.33;100809.27;1733447;81;20965;-42
2022/07/05 05:08:42;;;;;;;9.15;4.20;;;;;;;27.57;69.06;100810.22;1719995;82;22261;-42
2022/07/05 05:11:09;;;;;;;12.75;3.92;;;;;;;27.68;66.05;100817.27;1732526;82;21157;-42
2022/07/05 05:13:36;;;;;;;17.52;3.70;;;;;;;27.76;66.36;100816.13;1723663;82;21239;-42
2022/07/05 05:16:05;;;;;;;4.10;3.55;;;;;;;27.94;66.95;100815.52;1734522;82;21735;-42
2022/07/05 05:18:32;;;;;;;14.90;4.33;;;;;;;28.19;65.91;100818.72;1733526;82;21129;-42
2022/07/05 05:20:59;;;;;;;5.37;3.77;;;;;;;28.38;65.45;100818.75;1733356;81;21524;-42
2022/07/05 05:25:27;;;;;;;17.32;4.03;;;;;;;28.63;63.61;100818.39;1793429;79;22056;-43
2022/07/05 05:27:57;;;;;;;11.20;4.03;;;;;;;28.78;63.78;100814.83;1756955;80;21488;-44
2022/07/05 05:30:23;;;;;;;5.08;3.60;;;;;;;28.93;60.95;100820.61;1759529;80;21215;-43
2022/07/05 05:32:50;;;;;;;8.55;4.10;;;;;;;28.99;61.18;100816.56;1751492;80;20964;-43
2022/07/05 05:35:20;;;;;;;6.62;3.87;;;;;;;28.98;61.36;100821.03;1757483;80;21123;-43
2022/07/05 05:37:50;;;;;;;12.03;4.00;;;;;;;29.10;61.11;100817.26;1742507;80;21121;-43
2022/07/05 05:40:18;;;;;;;7.97;4.35;;;;;;;29.32;61.41;100821.94;1747805;80;20924;-44
2022/07/05 05:42:45;;;;;;;11.90;4.28;;;;;;;29.57;61.72;100819.67;1747345;80;22099;-43
2022/07/05 05:45:14;;;;;;;7.60;4.55;;;;;;;29.71;58.16;100818.38;1742286;80;20923;-44
2022/07/05 05:47:53;;;;;;;8.65;4.25;;;;;;;29.75;58.56;100817.09;1755408;81;20913;-44
2022/07/05 05:50:24;;;;;;;9.18;3.85;;;;;;;29.83;56.15;100822.53;1746883;80;21384;-44
2022/07/05 05:52:52;;;;;;;6.42;3.98;;;;;;;29.78;56.35;100815.46;1754861;80;21568;-44
2022/07/05 05:55:20;;;;;;;4.10;3.70;;;;;;;29.69;56.68;100820.34;1745632;80;21046;-42
2022/07/05 05:57:47;;;;;;;6.30;3.67;;;;;;;29.62;57.41;100828.08;1745396;80;20932;-41
2022/07/05 06:00:17;;;;;;;10.23;3.92;;;;;;;29.64;57.17;100826.58;1749277;80;20959;-44
2022/07/05 06:02:47;;;;;;;5.65;3.85;;;;;;;29.64;54.14;100826.58;1746657;80;20940;-42
2022/07/05 06:05:15;;;;;;;8.78;3.67;;;;;;;29.57;56.73;100828.16;1734870;80;20889;-43
2022/07/05 06:07:54;;;;;;;5.70;3.92;;;;;;;29.65;56.10;100828.27;1677991;84;21391;-42
2022/07/05 06:10:28;;;;;;;9.08;4.10;;;;;;;29.64;56.99;100830.58;1745620;81;20885;-43
2022/07/05 06:12:58;;;;;;;4.62;3.35;;;;;;;29.60;55.23;100835.38;1746138;80;20928;-42
2022/07/05 06:15:26;;;;;;;5.25;3.20;;;;;;;29.57;55.99;100834.34;1731219;81;20984;-42
2022/07/05 06:17:56;;;;;;;3.83;3.02;;;;;;;29.58;52.29;100825.83;1751605;80;20941;-43
2022/07/05 06:20:29;;;;;;;11.60;3.22;;;;;;;29.36;49.42;100817.14;1751223;80;21090;-42
2022/07/05 06:22:58;;;;;;;9.53;3.47;;;;;;;29.25;50.08;100811.48;1760601;80;20991;-43
2022/07/05 06:25:25;;;;;;;5.05;3.22;;;;;;;29.34;49.18;100811.12;1744555;80;21007;-43
2022/07/05 06:27:55;;;;;;;4.00;3.12;;;;;;;29.45;48.08;100811.48;1717768;80;21070;-43
2022/07/05 06:30:24;;;;;;;3.83;3.12;;;;;;;29.46;47.44;100801.17;1754644;80;21481;-42
2022/07/05 06:32:52;;;;;;;5.70;3.00;;;;;;;29.51;45.02;100799.76;1726572;79;21205;-43
2022/07/05 06:35:22;;;;;;;13.30;3.37;;;;;;;29.50;42.67;100800.74;1741995;80;21071;-42
2022/07/05 06:37:54;;;;;;;8.20;3.33;;;;;;;29.47;43.06;100803.70;1727413;80;21071;-42
2022/07/05 06:40:33;;;;;;;3.10;2.80;;;;;;;29.46;41.96;100802.02;1731905;80;21524;-42
2022/07/05 06:43:03;;;;;;;3.65;2.67;;;;;;;29.46;39.96;100808.69;1720068;81;20942;-43
2022/07/05 06:45:33;;;;;;;4.17;3.67;;;;;;;29.53;39.62;100802.26;1692694;83;21036;-43
2022/07/05 06:48:08;;;;;;;3.60;3.15;;;;;;;29.66;41.43;100808.61;1734498;80;21046;-43
2022/07/05 06:50:40;;;;;;;3.25;2.95;;;;;;;29.76;41.21;100802.77;1723772;80;21032;-43
2022/07/05 06:53:08;;;;;;;3.20;2.98;;;;;;;29.83;41.79;100801.70;1742364;80;21005;-44
2022/07/05 06:55:35;;;;;;;4.67;2.98;;;;;;;29.85;40.24;100801.53;1741884;80;20992;-44
2022/07/05 06:58:05;;;;;;;3.00;2.83;;;;;;;29.85;40.69;100802.39;1737685;80;21407;-43
2022/07/05 07:00:32;;;;;;;10.82;3.37;;;;;;;29.87;40.40;100801.75;1723717;80;21059;-43
2022/07/05 07:03:01;;;;;;;2.90;2.70;;;;;;;29.92;40.15;100805.29;1731089;80;20991;-44
2022/07/05 07:05:29;;;;;;;2.70;2.33;;;;;;;30.04;40.51;100800.16;1739088;80;20963;-44
2022/07/05 07:10:42;;;;;;;6.58;3.00;;;;;;;30.24;39.97;100806.73;1713017;81;21285;-43
2022/07/05 07:13:09;;;;;;;4.47;2.77;;;;;;;30.35;40.87;100803.84;1709599;81;21098;-43
2022/07/05 07:15:37;;;;;;;8.15;2.52;;;;;;;30.53;42.45;100796.36;1752359;80;21019;-43
2022/07/05 07:18:06;;;;;;;4.08;2.72;;;;;;;30.63;39.88;100801.66;1723699;80;20973;-43
2022/07/05 07:20:33;;;;;;;5.55;2.40;;;;;;;30.79;39.81;100793.78;1732380;80;20993;-43
2022/07/05 07:23:01;;;;;;;4.33;2.22;;;;;;;30.96;38.48;100796.61;1723518;81;21405;-44
2022/07/05 07:25:31;;;;;;;2.12;1.92;;;;;;;31.03;36.67;100791.49;1664873;83;21127;-43
2022/07/05 07:27:58;;;;;;;5.10;2.00;;;;;;;31.13;34.96;100802.92;1717664;80;20972;-43
2022/07/05 07:30:26;;;;;;;2.52;2.05;;;;;;;31.19;35.65;100796.97;1739415;80;21047;-43
2022/07/05 07:32:54;;;;;;;2.25;2.10;;;;;;;31.26;34.73;100797.20;1741826;80;21078;-43
2022/07/05 07:35:22;;;;;;;4.97;2.47;;;;;;;31.40;33.48;100799.80;1691398;83;21309;-43
2022/07/05 07:37:50;;;;;;;5.50;2.50;;;;;;;31.41;33.23;100797.46;1754246;80;21010;-45
2022/07/05 07:40:20;;;;;;;9.33;2.50;;;;;;;31.38;33.14;100803.13;1729444;80;20974;-43
2022/07/05 07:42:49;;;;;;;3.90;2.12;;;;;;;31.35;33.24;100804.78;1744452;80;21063;-43
2022/07/05 07:45:18;;;;;;;2.35;1.87;;;;;;;31.27;34.88;100806.07;1739036;80;22454;-43
2022/07/05 07:47:46;;;;;;;3.92;1.80;;;;;;;31.25;34.08;100799.05;1755739;80;21140;-43
2022/07/05 07:50:15;;;;;;;2.10;2.00;;;;;;;31.23;33.87;100798.37;1734029;80;21013;-44
2022/07/05 07:52:44;;;;;;;3.17;2.10;;;;;;;31.29;34.09;100800.89;1728894;80;20864;-44
2022/07/05 07:55:14;;;;;;;2.50;1.77;;;;;;;31.49;35.19;100794.86;1754969;80;21051;-44
2022/07/05 07:57:43;;;;;;;3.37;2.10;;;;;;;31.91;34.29;100796.42;1729946;80;20921;-44
2022/07/05 08:00:13;;;;;;;6.62;2.25;;;;;;;32.15;33.66;100802.38;1668441;83;21140;-44
2022/07/05 08:02:42;;;;;;;5.90;2.20;;;;;;;32.19;32.59;100798.86;1661308;83;21041;-44
2022/07/05 08:05:09;;;;;;;2.47;1.90;;;;;;;32.15;33.18;100801.05;1673158;83;20956;-44
2022/07/05 08:07:37;;;;;;;2.00;1.90;;;;;;;32.17;34.58;100795.52;1744918;80;21007;-44
2022/07/05 08:10:10;;;;;;;4.87;2.20;;;;;;;32.21;33.20;100798.20;1747130;80;20961;-44
2022/07/05 08:12:40;;;;;;;2.10;2.00;;;;;;;32.26;32.23;100795.89;1723518;81;21248;-43
2022/07/05 08:15:11;;;;;;;2.83;1.95;;;;;;;32.31;33.57;100798.06;1751308;80;20941;-43
2022/07/05 08:21:30;;;;;;;3.83;2.20;;;;;;;32.71;34.90;100791.62;1751122;80;20932;-44
2022/07/05 08:22:58;;;;;;;2.33;1.90;;;;;;;33.37;35.04;100788.46;1727095;80;20975;-43
2022/07/05 08:25:27;;;;;;;4.33;1.80;;;;;;;33.71;32.18;100787.05;1753592;80;21683;-43
2022/07/05 08:27:54;;;;;;;5.37;1.70;;;;;;;33.87;30.90;100793.70;1728576;80;20923;-44
2022/07/05 08:30:24;;;;;;;2.33;2.10;;;;;;;33.77;30.36;100794.40;1743371;80;20846;-43
2022/07/05 08:32:51;;;;;;;2.25;2.05;;;;;;;33.92;30.07;100798.04;1715506;80;21471;-43
2022/07/05 08:35:20;;;;;;;4.28;2.10;;;;;;;34.05;28.72;100793.48;1749919;80;21019;-43
2022/07/05 08:37:49;;;;;;;3.27;2.12;;;;;;;34.36;29.28;100792.63;1755386;80;21153;-43
2022/07/05 08:40:17;;;;;;;6.37;2.00;;;;;;;34.63;31.09;100790.46;1737232;80;21453;-43
2022/07/05 08:42:46;;;;;;;3.42;2.00;;;;;;;34.76;29.70;100788.52;1724011;79;20949;-43
2022/07/05 08:45:17;;;;;;;3.55;1.80;;;;;;;34.92;31.02;100790.75;1746862;80;21053;-43
2022/07/05 08:47:46;;;;;;;2.00;1.90;;;;;;;35.01;29.77;100787.52;1720023;82;20918;-44
2022/07/05 08:50:14;;;;;;;2.08;1.92;;;;;;;35.03;29.93;100786.82;1719487;81;21070;-43
2022/07/05 08:52:43;;;;;;;4.87;1.60;;;;;;;34.89;28.50;100782.52;1737687;80;21008;-43
2022/07/05 08:55:12;;;;;;;10.72;2.42;;;;;;;34.95;28.86;100780.97;1731137;80;20932;-43
2022/07/05 08:57:41;;;;;;;2.87;2.05;;;;;;;35.08;29.09;100783.89;1738830;80;20921;-43
2022/07/05 09:00:13;;;;;;;4.65;1.92;;;;;;;35.06;28.30;100787.80;1738602;79;20845;-43
2022/07/05 09:02:41;;;;;;;4.75;1.72;;;;;;;35.02;26.36;100782.46;1735295;80;20978;-43
2022/07/05 09:05:14;;;;;;;2.22;1.80;;;;;;;35.15;27.67;100788.03;1724670;80;20913;-43
2022/07/05 09:07:58;;;;;;;7.72;3.75;;;;;;;35.20;28.96;100787.49;1666305;83;20902;-43
2022/07/05 09:10:29;;;;;;;11.20;2.60;;;;;;;35.19;28.19;100785.30;1728325;80;21030;-43
2022/07/05 09:12:57;;;;;;;6.22;2.75;;;;;;;35.14;29.80;100785.02;1747639;80;20933;-43
2022/07/05 09:15:24;;;;;;;10.05;6.00;;;;;;;35.17;27.65;100778.45;1731625;81;21243;-43
2022/07/05 09:17:51;;;;;;;4.17;3.65;;;;;;;35.01;25.34;100786.98;1730560;80;20986;-43
2022/07/05 09:20:20;;;;;;;5.80;4.72;;;;;;;34.89;26.51;100779.02;1742285;80;21012;-43
2022/07/05 09:22:52;;;;;;;16.67;2.75;;;;;;;34.96;29.42;100778.08;1735889;80;21012;-45
2022/07/05 09:25:27;;;;;;;5.33;2.30;;;;;;;35.18;26.85;100776.91;1734385;81;20940;-43
2022/07/05 09:28:04;;;;;;;7.45;2.72;;;;;;;35.48;26.35;100777.44;1740012;80;21040;-42
2022/07/05 09:30:39;;;;;;;7.03;3.02;;;;;;;35.56;28.74;100788.66;1733091;81;21016;-43
2022/07/05 09:33:15;;;;;;;3.75;2.35;;;;;;;35.49;27.93;100781.28;1746145;80;21524;-42
2022/07/05 09:35:57;;;;;;;4.28;2.10;;;;;;;35.41;28.32;100777.34;1718789;80;21011;-43
2022/07/05 09:38:25;;;;;;;8.63;2.02;;;;;;;35.58;26.31;100776.67;1752412;80;20958;-43
2022/07/05 09:40:54;;;;;;;2.47;2.27;;;;;;;35.74;27.38;100778.85;1761027;80;21261;-43
2022/07/05 09:43:30;;;;;;;14.93;2.57;;;;;;;35.59;27.78;100775.65;1745929;80;21063;-43
2022/07/05 09:45:59;;;;;;;9.15;2.17;;;;;;;35.60;26.28;100772.46;1746281;79;20997;-44
2022/07/05 09:48:28;;;;;;;5.97;2.12;;;;;;;35.46;25.91;100768.73;1748637;80;20983;-43
2022/07/05 09:51:06;;;;;;;1.80;1.70;;;;;;;35.49;26.06;100767.00;1756481;80;20999;-44
2022/07/05 09:53:49;;;;;;;4.20;2.30;;;;;;;35.24;27.70;100762.75;1741822;80;21219;-44
2022/07/05 09:56:17;;;;;;;5.25;1.90;;;;;;;35.30;28.28;100763.02;1744410;80;21420;-44
2022/07/05 09:58:46;;;;;;;4.28;2.20;;;;;;;35.43;27.58;100761.84;1759528;80;20915;-44
2022/07/05 10:01:32;;;;;;;4.12;2.15;;;;;;;35.58;28.37;100757.84;1737780;80;20948;-44
2022/07/05 10:04:04;;;;;;;5.37;1.90;;;;;;;35.65;27.73;100762.81;1741694;80;21114;-44
2022/07/05 10:06:32;;;;;;;2.22;2.12;;;;;;;35.62;27.54;100758.31;1664958;82;21784;-44
2022/07/05 10:08:59;;;;;;;2.62;1.95;;;;;;;35.75;27.23;100758.49;1751571;80;20940;-44
2022/07/05 10:11:29;;;;;;;8.38;1.85;;;;;;;35.79;25.69;100750.36;1739249;80;21592;-44
2022/07/05 10:13:57;;;;;;;7.37;2.30;;;;;;;35.94;25.73;100753.52;1746373;80;21007;-45
2022/07/05 10:16:26;;;;;;;7.78;2.30;;;;;;;36.07;26.74;100751.02;1741827;80;20944;-44
2022/07/05 10:18:56;;;;;;;48.02;5.42;;;;;;;36.08;25.09;100747.30;1759159;80;21185;-44
2022/07/05 10:21:25;;;;;;;46.05;4.47;;;;;;;35.95;26.85;100749.80;1742260;80;20951;-44
2022/07/05 10:23:56;;;;;;;20.43;2.98;;;;;;;35.90;27.34;100746.84;1738160;80;21122;-44
2022/07/05 10:26:24;;;;;;;5.67;2.12;;;;;;;36.08;27.51;100737.88;1738686;80;20986;-44
2022/07/05 10:28:53;;;;;;;14.35;2.67;;;;;;;36.14;25.32;100741.67;1747112;80;20842;-44
2022/07/05 10:31:20;;;;;;;13.43;3.60;;;;;;;36.22;27.08;100732.11;1750772;79;21098;-43
2022/07/05 10:33:49;;;;;;;199.77;15.50;;;;;;;36.27;26.38;100738.28;1752844;80;20840;-44
2022/07/05 10:36:16;;;;;;;75.42;6.62;;;;;;;36.15;27.13;100735.26;1744776;80;20980;-44
2022/07/05 10:38:43;;;;;;;26.37;3.35;;;;;;;35.99;24.97;100731.41;1749996;80;20984;-43
2022/07/05 10:41:19;;;;;;;15.72;2.58;;;;;;;36.01;26.70;100734.25;1737333;80;20996;-43
2022/07/05 10:43:45;;;;;;;6.62;2.27;;;;;;;36.10;24.65;100726.40;1725020;80;22113;-44
2022/07/05 10:46:12;;;;;;;10.58;2.42;;;;;;;36.13;25.21;100727.89;1740929;80;20940;-44
2022/07/05 10:48:39;;;;;;;16.73;2.20;;;;;;;36.05;23.75;100729.33;1700003;81;21066;-44
2022/07/05 10:51:15;;;;;;;6.37;1.98;;;;;;;35.89;24.92;100731.72;1738339;80;20984;-44
2022/07/05 10:54:00;;;;;;;7.45;2.47;;;;;;;35.96;25.62;100722.70;1711184;81;21027;-44
2022/07/05 10:56:28;;;;;;;82.57;6.70;;;;;;;36.19;23.96;100727.61;1737698;80;21220;-44
2022/07/05 10:59:11;;;;;;;67.08;4.70;;;;;;;36.30;24.02;100727.12;1745153;80;20931;-44
2022/07/05 11:01:40;;;;;;;5.30;2.15;;;;;;;36.39;24.67;100724.60;1751805;80;21473;-44
2022/07/05 11:04:15;;;;;;;4.17;1.82;;;;;;;36.47;22.75;100718.75;1747924;80;21043;-43
2022/07/05 11:06:45;;;;;;;2.95;1.92;;;;;;;36.57;24.69;100721.15;1733923;80;21016;-44
2022/07/05 11:09:16;;;;;;;2.75;1.80;;;;;;;36.63;22.47;100721.21;1659822;84;21148;-43
2022/07/05 11:11:54;;;;;;;10.35;2.00;;;;;;;36.51;23.64;100718.71;1725455;80;20917;-44
2022/07/05 11:14:29;;;;;;;2.92;1.82;;;;;;;36.66;24.00;100718.13;1743136;80;21016;-45
2022/07/05 11:17:16;;;;;;;1.80;1.70;;;;;;;36.89;23.52;100717.05;1729073;80;20940;-43
2022/07/05 11:20:04;;;;;;;4.83;2.00;;;;;;;37.04;24.08;100721.55;1742381;80;20923;-44
2022/07/05 11:22:37;;;;;;;4.85;1.90;;;;;;;36.94;23.68;100718.63;1746823;80;21258;-44
2022/07/05 11:25:06;;;;;;;3.33;1.85;;;;;;;36.76;24.32;100714.27;1745925;80;21414;-44
2022/07/05 11:27:37;;;;;;;4.50;2.05;;;;;;;36.63;24.53;100714.47;1714999;80;20968;-44
2022/07/05 11:30:10;;;;;;;5.78;2.08;;;;;;;36.70;23.44;100717.23;1758631;80;21043;-44
2022/07/05 11:32:39;;;;;;;2.85;1.72;;;;;;;36.47;23.57;100714.21;1723808;81;20933;-44
2022/07/05 11:35:20;;;;;;;2.77;1.87;;;;;;;36.16;22.95;100709.99;1738949;80;21175;-44